Time;durP1;ratioP1;P1;durP2;ratioP2;P2;SDS_P1;SDS_P2;PMS_P1;PMS_P2;Temp;Humidity;BMP_temperature;BMP_pressure;BME280_temperature;BME280_humidity;BME280_pressure;Samples;Min_cycle;Max_cycle;Signal;HPM_P1;HPM_P2
2020/12/03 00:01:00;;;;;;;24.75;16.00;;;;;;;-0.86;78.95;95316.41;5034458;28;20204;-89
2020/12/03 00:03:29;;;;;;;29.60;13.65;;;;;;;-0.82;78.73;95317.16;5034990;28;20203;-90
2020/12/03 00:06:00;;;;;;;32.13;15.32;;;;;;;-0.79;79.40;95310.16;5034262;27;20290;-89
2020/12/03 00:08:30;;;;;;;23.08;13.55;;;;;;;-0.78;78.19;95313.56;5033712;28;20196;-89
2020/12/03 00:11:00;;;;;;;29.73;15.35;;;;;;;-0.78;78.22;95318.72;5034026;28;20285;-90
2020/12/03 00:13:31;;;;;;;34.03;16.77;;;;;;;-0.87;77.97;95316.44;5033798;27;20234;-89
2020/12/03 00:16:00;;;;;;;38.13;20.25;;;;;;;-0.95;78.99;95327.00;5033858;28;20780;-90
2020/12/03 00:18:28;;;;;;;32.28;16.42;;;;;;;-0.90;79.34;95316.53;5033513;27;20204;-89
2020/12/03 00:20:56;;;;;;;28.38;14.85;;;;;;;-0.87;78.59;95329.31;5033849;27;20256;-90
2020/12/03 00:23:22;;;;;;;33.47;15.48;;;;;;;-0.91;78.62;95323.44;5033641;28;20301;-89
2020/12/03 00:25:50;;;;;;;45.33;17.42;;;;;;;-0.83;78.85;95318.03;5035659;28;20203;-89
2020/12/03 00:28:17;;;;;;;33.60;16.27;;;;;;;-0.83;78.57;95328.34;5040797;27;20204;-90
2020/12/03 00:30:46;;;;;;;27.70;14.00;;;;;;;-0.85;78.38;95333.56;5038156;28;20219;-90
2020/12/03 00:33:12;;;;;;;24.98;13.65;;;;;;;-0.94;79.04;95318.38;5036633;28;20242;-90
2020/12/03 00:35:39;;;;;;;29.35;15.63;;;;;;;-0.87;79.60;95327.56;5033140;28;20200;-89
2020/12/03 00:38:05;;;;;;;34.55;13.55;;;;;;;-0.86;79.47;95324.13;5033242;27;20207;-89
2020/12/03 00:40:32;;;;;;;26.98;13.43;;;;;;;-0.82;79.98;95330.03;5034016;27;20610;-89
2020/12/03 00:42:58;;;;;;;22.15;13.43;;;;;;;-0.79;79.30;95330.75;5033074;27;20207;-89
2020/12/03 00:45:24;;;;;;;27.58;13.48;;;;;;;-0.77;79.04;95331.53;5033287;28;20211;-90
2020/12/03 00:47:52;;;;;;;23.52;13.38;;;;;;;-0.83;79.82;95324.03;5033111;28;20720;-90
2020/12/03 00:50:18;;;;;;;31.75;14.10;;;;;;;-0.81;79.36;95329.97;5033278;28;20227;-89
2020/12/03 00:52:45;;;;;;;18.65;12.98;;;;;;;-0.82;79.07;95333.44;5033297;28;20205;-89
2020/12/03 00:55:12;;;;;;;23.73;11.88;;;;;;;-0.83;79.38;95328.34;5033276;28;20223;-89
2020/12/03 00:57:39;;;;;;;25.48;13.43;;;;;;;-0.85;78.99;95333.56;5033773;28;20290;-89
2020/12/03 01:00:09;;;;;;;32.08;13.50;;;;;;;-0.84;79.62;95327.50;5032768;28;20203;-89
2020/12/03 01:02:35;;;;;;;32.83;16.30;;;;;;;-0.82;80.22;95330.88;5031889;28;20200;-90
2020/12/03 01:05:03;;;;;;;40.22;19.55;;;;;;;-0.78;80.90;95327.28;5033293;27;20199;-89
2020/12/03 01:07:30;;;;;;;34.28;16.55;;;;;;;-0.73;81.39;95314.25;5033820;27;20211;-90
2020/12/03 01:09:56;;;;;;;31.65;17.17;;;;;;;-0.70;81.50;95314.13;5033029;28;20308;-89
2020/12/03 01:12:23;;;;;;;31.35;17.40;;;;;;;-0.66;81.70;95302.84;5032779;28;20286;-90
2020/12/03 01:14:51;;;;;;;37.83;19.55;;;;;;;-0.64;81.47;95304.47;5032246;27;20724;-90
2020/12/03 01:17:18;;;;;;;32.20;16.90;;;;;;;-0.58;81.64;95307.72;5032576;28;20332;-89
2020/12/03 01:19:45;;;;;;;29.98;16.50;;;;;;;-0.56;82.04;95306.78;5032903;28;20203;-90
2020/12/03 01:22:12;;;;;;;35.45;18.63;;;;;;;-0.55;82.48;95302.47;5032697;28;20207;-89
2020/12/03 01:24:42;;;;;;;29.17;15.48;;;;;;;-0.53;82.16;95298.94;5032538;28;20231;-90
2020/12/03 01:27:10;;;;;;;26.30;16.20;;;;;;;-0.60;82.00;95300.03;5032442;27;20287;-90
2020/12/03 01:29:37;;;;;;;29.33;17.35;;;;;;;-0.67;81.57;95296.84;5033457;28;20231;-90
2020/12/03 01:32:03;;;;;;;29.30;15.65;;;;;;;-0.70;81.58;95293.53;5032410;28;20203;-89
2020/12/03 01:34:30;;;;;;;31.27;16.73;;;;;;;-0.78;81.37;95292.97;5032836;27;20207;-89
2020/12/03 01:36:56;;;;;;;27.77;17.05;;;;;;;-0.77;81.76;95298.06;5032692;27;20379;-90
2020/12/03 01:39:24;;;;;;;32.10;15.68;;;;;;;-0.75;81.54;95285.97;5032476;27;20211;-90
2020/12/03 01:41:51;;;;;;;41.35;16.27;;;;;;;-0.75;81.17;95275.66;5032452;28;20573;-90
2020/12/03 01:44:35;;;;;;;38.20;16.95;;;;;;;-0.69;80.80;95285.75;5032373;28;20204;-89
2020/12/03 01:47:02;;;;;;;30.27;16.30;;;;;;;-0.69;80.61;95283.16;5033010;27;20223;-90
2020/12/03 01:49:31;;;;;;;26.55;15.23;;;;;;;-0.73;80.47;95284.16;5032409;28;20207;-90
2020/12/03 01:51:58;;;;;;;28.80;15.43;;;;;;;-0.76;79.32;95284.28;5032525;27;20214;-90
2020/12/03 01:54:25;;;;;;;38.83;15.88;;;;;;;-0.78;79.88;95286.06;5032756;27;20227;-90
2020/12/03 01:57:15;;;;;;;26.83;15.93;;;;;;;-0.73;79.81;95289.31;5033531;28;20227;-89
2020/12/03 01:59:44;;;;;;;31.35;16.90;;;;;;;-0.76;79.18;95286.00;5034973;27;20306;-89
2020/12/03 02:02:14;;;;;;;30.05;16.50;;;;;;;-0.76;78.88;95279.13;5034723;28;20204;-90
2020/12/03 02:04:40;;;;;;;32.53;14.55;;;;;;;-0.78;79.40;95275.75;5034512;27;20230;-90
2020/12/03 02:07:09;;;;;;;21.50;11.55;;;;;;;-0.81;79.15;95264.72;5033560;28;20250;-90
2020/12/03 02:09:37;;;;;;;20.50;10.98;;;;;;;-0.83;79.59;95275.09;5031890;28;20310;-90
2020/12/03 02:12:04;;;;;;;23.75;12.32;;;;;;;-1.05;79.50;95274.13;5032300;28;20286;-89
2020/12/03 02:14:31;;;;;;;21.02;10.00;;;;;;;-1.08;79.08;95276.81;5035286;28;20307;-89
2020/12/03 02:16:58;;;;;;;21.20;11.45;;;;;;;-1.11;79.62;95262.31;5035679;28;20211;-90
2020/12/03 02:19:27;;;;;;;13.65;8.25;;;;;;;-1.11;80.09;95254.59;5035249;28;20204;-89
2020/12/03 02:21:59;;;;;;;14.18;8.90;;;;;;;-1.10;80.03;95264.00;5034948;28;20248;-90
2020/12/03 02:24:26;;;;;;;116.80;43.22;;;;;;;-1.10;80.27;95250.28;5035994;27;20233;-90
2020/12/03 02:26:52;;;;;;;29.20;15.35;;;;;;;-1.10;81.10;95239.97;5034969;28;20200;-90
2020/12/03 02:29:20;;;;;;;20.90;11.30;;;;;;;-0.99;81.14;95243.00;5034937;27;20207;-90
2020/12/03 02:31:48;;;;;;;17.58;10.77;;;;;;;-0.93;81.31;95247.94;5035407;27;20233;-89
2020/12/03 02:34:15;;;;;;;14.88;10.00;;;;;;;-0.93;80.72;95242.78;5035461;28;20322;-90
2020/12/03 02:36:42;;;;;;;17.45;10.95;;;;;;;-1.01;80.52;95242.22;5035432;27;20200;-90
2020/12/03 02:39:10;;;;;;;32.42;16.17;;;;;;;-1.38;81.10;95233.19;5035925;27;20211;-89
2020/12/03 02:41:38;;;;;;;33.88;18.90;;;;;;;-1.40;81.49;95237.53;5035044;28;20217;-89
2020/12/03 02:44:04;;;;;;;37.67;18.60;;;;;;;-1.39;81.62;95223.78;5034678;28;20199;-90
2020/12/03 02:46:31;;;;;;;24.33;17.15;;;;;;;-1.32;81.46;95227.81;5035527;28;20207;-89
2020/12/03 02:48:57;;;;;;;23.80;15.85;;;;;;;-1.23;82.01;95246.41;5035294;28;20214;-90
2020/12/03 02:51:23;;;;;;;24.33;13.20;;;;;;;-1.19;81.41;95241.09;5034936;27;20226;-90
2020/12/03 02:53:50;;;;;;;17.08;12.13;;;;;;;-1.11;82.01;95246.03;5034921;28;20314;-90
2020/12/03 02:56:17;;;;;;;17.90;11.15;;;;;;;-1.06;81.35;95233.81;5035082;28;20210;-90
2020/12/03 02:58:44;;;;;;;22.02;11.80;;;;;;;-1.02;81.75;95238.81;5034885;27;20204;-90
2020/12/03 03:01:11;;;;;;;17.23;10.30;;;;;;;-0.96;81.26;95245.47;5034917;27;20218;-89
2020/12/03 03:03:38;;;;;;;27.20;11.27;;;;;;;-0.91;81.31;95235.84;5034466;28;20242;-90
2020/12/03 03:06:04;;;;;;;17.40;10.73;;;;;;;-0.91;79.94;95232.44;5035331;27;20230;-90
2020/12/03 03:08:31;;;;;;;14.82;10.68;;;;;;;-0.91;80.10;95230.69;5035200;27;20200;-90
2020/12/03 03:10:57;;;;;;;17.17;11.60;;;;;;;-0.97;79.94;95218.88;5034580;28;20346;-89
2020/12/03 03:13:25;;;;;;;21.58;12.50;;;;;;;-0.95;80.25;95229.97;5034682;28;20290;-90
2020/12/03 03:15:51;;;;;;;22.33;13.73;;;;;;;-1.01;80.73;95201.88;5034513;28;20245;-90
2020/12/03 03:18:18;;;;;;;20.27;13.48;;;;;;;-0.88;80.95;95216.88;5033873;27;20440;-90
2020/12/03 03:20:44;;;;;;;24.25;12.75;;;;;;;-0.83;80.33;95210.69;5034586;28;20627;-90
2020/12/03 03:23:11;;;;;;;21.80;12.55;;;;;;;-0.89;79.75;95197.16;5034556;28;20200;-89
2020/12/03 03:25:37;;;;;;;14.07;10.85;;;;;;;-0.84;79.95;95209.00;5034173;27;20210;-90
2020/12/03 03:28:04;;;;;;;17.80;9.68;;;;;;;-0.83;80.35;95210.69;5034494;28;20206;-90
2020/12/03 03:30:31;;;;;;;13.90;8.57;;;;;;;-0.82;79.59;95211.53;5034218;27;20242;-90
2020/12/03 03:32:58;;;;;;;13.23;9.50;;;;;;;-0.83;79.52;95218.41;5034395;28;20235;-90
2020/12/03 03:35:24;;;;;;;17.77;10.13;;;;;;;-0.80;79.18;95215.72;5034218;28;20216;-90
2020/12/03 03:37:51;;;;;;;18.27;10.68;;;;;;;-0.79;79.19;95221.72;5034119;28;20199;-90
2020/12/03 03:40:17;;;;;;;34.45;14.50;;;;;;;-0.79;79.61;95214.84;5034181;28;20548;-90
2020/12/03 03:42:44;;;;;;;23.67;14.65;;;;;;;-0.92;80.08;95221.28;5034345;27;20218;-90
2020/12/03 03:45:11;;;;;;;25.33;12.75;;;;;;;-0.96;79.64;95242.91;5033911;27;20195;-90
2020/12/03 03:47:39;;;;;;;33.30;15.02;;;;;;;-1.08;80.90;95236.44;5034425;28;20219;-90
2020/12/03 03:50:07;;;;;;;27.27;12.90;;;;;;;-1.08;81.54;95226.16;5034120;28;20255;-89
2020/12/03 03:52:35;;;;;;;21.77;12.60;;;;;;;-1.04;81.83;95221.72;5034265;27;20238;-89
2020/12/03 03:55:01;;;;;;;23.48;12.98;;;;;;;-1.02;81.65;95225.09;5034182;28;20271;-90
2020/12/03 03:57:28;;;;;;;37.28;19.55;;;;;;;-1.29;82.50;95232.84;5034137;27;20728;-90
2020/12/03 03:59:54;;;;;;;50.35;27.85;;;;;;;-1.26;82.51;95231.91;5034191;28;20568;-89
2020/12/03 04:02:22;;;;;;;39.45;20.77;;;;;;;-1.18;82.90;95231.66;5034239;28;20204;-89
2020/12/03 04:04:50;;;;;;;40.45;21.45;;;;;;;-1.09;82.78;95226.22;5034023;27;20661;-90
2020/12/03 04:07:17;;;;;;;39.15;20.42;;;;;;;-1.07;82.07;95224.41;5034210;28;20204;-90
2020/12/03 04:09:46;;;;;;;31.58;17.27;;;;;;;-1.08;81.54;95231.31;5033812;28;20196;-90
2020/12/03 04:12:12;;;;;;;23.30;14.00;;;;;;;-1.05;81.00;95231.19;5034361;28;20260;-90
2020/12/03 04:14:39;;;;;;;24.23;14.88;;;;;;;-1.05;80.30;95230.34;5033455;27;20712;-90
2020/12/03 04:17:05;;;;;;;29.60;15.65;;;;;;;-1.04;80.53;95229.47;5033697;28;20235;-90
2020/12/03 04:19:32;;;;;;;32.47;16.92;;;;;;;-1.02;80.07;95233.66;5032168;28;20525;-89
2020/12/03 04:21:59;;;;;;;26.90;15.98;;;;;;;-1.01;80.02;95232.75;5033839;27;20199;-89
2020/12/03 04:24:25;;;;;;;23.00;12.73;;;;;;;-1.03;79.74;95231.13;5033376;28;20271;-90
2020/12/03 04:26:52;;;;;;;21.10;10.75;;;;;;;-1.10;78.81;95234.81;5033632;27;20294;-89
2020/12/03 04:29:18;;;;;;;19.58;12.40;;;;;;;-1.06;79.08;95238.97;5033439;27;20199;-90
2020/12/03 04:31:45;;;;;;;21.08;11.05;;;;;;;-1.07;78.74;95234.72;5033501;28;20231;-89
2020/12/03 04:34:13;;;;;;;19.25;10.60;;;;;;;-1.07;79.54;95240.72;5033176;28;20767;-90
2020/12/03 04:36:39;;;;;;;15.57;10.75;;;;;;;-1.06;79.84;95241.53;5033236;27;20235;-90
2020/12/03 04:39:07;;;;;;;17.13;10.60;;;;;;;-1.01;79.10;95234.50;5033397;27;20720;-89
2020/12/03 04:41:34;;;;;;;20.95;11.35;;;;;;;-1.02;78.85;95228.50;5034094;27;20284;-90
2020/12/03 04:44:06;;;;;;;22.80;12.23;;;;;;;-1.01;78.64;95232.75;5033358;28;20225;-89
2020/12/03 04:46:38;;;;;;;18.98;12.32;;;;;;;-1.02;78.91;95219.94;5033993;28;20541;-90
2020/12/03 04:49:25;;;;;;;24.83;11.68;;;;;;;-1.03;78.94;95228.56;5033669;28;20570;-90
2020/12/03 04:52:31;;;;;;;19.77;11.82;;;;;;;-1.02;79.09;95235.41;5032780;27;20239;-90
2020/12/03 04:55:14;;;;;;;19.30;10.75;;;;;;;-1.00;79.44;95233.59;5033064;28;20209;-90
2020/12/03 04:57:45;;;;;;;18.67;12.70;;;;;;;-1.01;79.02;95227.63;5033152;27;20260;-90
2020/12/03 05:00:22;;;;;;;18.23;12.60;;;;;;;-1.00;78.82;95221.56;5033480;27;20227;-90
2020/12/03 05:03:23;;;;;;;26.63;13.20;;;;;;;-0.99;78.95;95223.25;5034010;28;20206;-89
2020/12/03 05:06:01;;;;;;;33.65;17.40;;;;;;;-1.02;78.66;95220.78;5033972;28;20274;-89
2020/12/03 05:08:39;;;;;;;34.25;19.05;;;;;;;-1.09;78.97;95224.47;5033654;27;20250;-90
2020/12/03 05:11:18;;;;;;;32.55;18.55;;;;;;;-1.13;80.00;95207.44;5033705;28;20207;-90
2020/12/03 05:13:49;;;;;;;33.55;18.00;;;;;;;-1.11;81.02;95220.28;5035648;28;20206;-89
2020/12/03 05:16:19;;;;;;;45.10;23.63;;;;;;;-1.21;80.93;95216.31;5039672;27;20614;-90
2020/12/03 05:18:54;;;;;;;63.42;33.65;;;;;;;-1.14;81.93;95225.53;5040802;28;20187;-89
2020/12/03 05:21:25;;;;;;;71.03;36.40;;;;;;;-1.16;81.88;95217.81;5052587;27;20257;-89
2020/12/03 05:23:51;;;;;;;111.40;43.92;;;;;;;-1.12;83.08;95226.31;5052813;28;20218;-88
2020/12/03 05:26:21;;;;;;;65.18;30.02;;;;;;;-1.08;83.64;95221.00;5046778;27;20673;-90
2020/12/03 05:28:57;;;;;;;47.35;23.05;;;;;;;-1.08;84.55;95217.59;5035509;28;20239;-90
2020/12/03 05:31:27;;;;;;;44.70;23.45;;;;;;;-0.98;84.04;95234.38;5034395;27;20688;-89
2020/12/03 05:33:58;;;;;;;42.90;23.63;;;;;;;-0.95;84.65;95222.25;5033950;28;20232;-90
2020/12/03 05:36:31;;;;;;;36.83;21.83;;;;;;;-0.93;84.37;95212.72;5033401;28;20298;-89
2020/12/03 05:38:59;;;;;;;35.90;20.92;;;;;;;-0.85;84.81;95230.50;5033106;28;20679;-90
2020/12/03 05:41:29;;;;;;;50.50;28.33;;;;;;;-0.85;84.62;95222.78;5032693;28;20199;-90
2020/12/03 05:43:56;;;;;;;55.05;25.92;;;;;;;-0.80;83.80;95230.34;5032803;28;20199;-90
2020/12/03 05:46:24;;;;;;;50.08;27.48;;;;;;;-0.76;83.25;95243.06;5032723;28;20612;-90
2020/12/03 05:48:58;;;;;;;54.88;29.45;;;;;;;-0.76;82.59;95237.91;5031512;27;20227;-90
2020/12/03 05:51:28;;;;;;;62.17;32.60;;;;;;;-0.74;82.58;95241.25;5032301;28;20656;-89
2020/12/03 05:54:03;;;;;;;54.00;33.53;;;;;;;-0.94;82.14;95235.97;5033256;28;20207;-89
2020/12/03 05:56:31;;;;;;;52.67;30.65;;;;;;;-0.93;82.45;95241.06;5033350;28;20602;-90
2020/12/03 05:59:15;;;;;;;47.83;26.20;;;;;;;-0.99;82.87;95235.28;5033733;28;20232;-89
2020/12/03 06:01:56;;;;;;;45.75;26.63;;;;;;;-1.06;82.32;95223.53;5036132;27;20199;-89
2020/12/03 06:04:33;;;;;;;41.80;24.15;;;;;;;-0.94;82.71;95249.69;5034782;28;20664;-90
2020/12/03 06:07:24;;;;;;;39.85;22.80;;;;;;;-0.89;82.95;95248.69;5069070;28;20207;-89
2020/12/03 06:10:10;;;;;;;46.25;24.27;;;;;;;-0.90;81.43;95247.00;5033173;28;20212;-90
2020/12/03 06:13:02;;;;;;;56.60;29.15;;;;;;;-1.01;81.07;95231.94;5037128;27;20207;-88
2020/12/03 06:15:44;;;;;;;49.08;27.77;;;;;;;-0.90;81.54;95245.25;5036391;27;20331;-90
2020/12/03 06:18:41;;;;;;;51.58;28.88;;;;;;;-0.94;81.91;95241.94;5037279;28;20200;-90
2020/12/03 06:21:43;;;;;;;52.80;29.50;;;;;;;-0.91;81.76;95232.44;5033738;27;20686;-89
2020/12/03 06:24:23;;;;;;;208.80;83.43;;;;;;;-0.81;82.47;95237.22;5040624;28;20213;-90
2020/12/03 06:27:08;;;;;;;79.93;40.08;;;;;;;-0.68;81.99;95241.03;5037340;28;20207;-90
2020/12/03 06:29:49;;;;;;;67.70;38.60;;;;;;;-0.58;81.99;95246.69;5033144;28;20284;-89
2020/12/03 06:32:56;;;;;;;53.90;33.72;;;;;;;-0.45;81.76;95247.13;5032099;28;20192;-90
2020/12/03 06:35:31;;;;;;;45.38;28.45;;;;;;;-0.32;81.64;95254.31;4988090;28;20203;-89
2020/12/03 06:38:18;;;;;;;53.10;29.05;;;;;;;-0.21;81.32;95251.38;5020955;28;20210;-90
2020/12/03 06:40:52;;;;;;;56.70;31.77;;;;;;;-0.10;81.15;95248.38;5033766;28;20205;-89
2020/12/03 06:43:29;;;;;;;66.05;39.80;;;;;;;-0.03;80.70;95240.34;5015333;28;20256;-89
2020/12/03 06:46:19;;;;;;;57.97;32.55;;;;;;;-0.05;81.56;95238.72;5019618;28;20277;-90
2020/12/03 06:49:06;;;;;;;69.78;37.40;;;;;;;0.02;82.17;95244.53;5022507;28;20233;-90
2020/12/03 06:52:07;;;;;;;65.63;35.25;;;;;;;0.08;82.98;95242.53;5014652;28;20253;-88
2020/12/03 06:55:08;;;;;;;65.88;37.13;;;;;;;0.26;83.33;95241.81;5059779;28;20239;-87
2020/12/03 06:58:00;;;;;;;72.97;38.60;;;;;;;0.38;83.08;95244.81;5027331;28;20236;-87
2020/12/03 07:00:57;;;;;;;68.65;41.40;;;;;;;0.50;82.88;95234.00;5035111;28;20267;-90
2020/12/03 07:04:00;;;;;;;73.55;41.63;;;;;;;0.65;82.88;95238.56;5035135;28;20268;-90
2020/12/03 07:07:08;;;;;;;95.05;46.95;;;;;;;0.82;82.61;95235.25;5028198;28;20644;-86
2020/12/03 07:09:59;;;;;;;333.40;145.90;;;;;;;0.90;82.03;95235.81;5033895;28;20278;-92
2020/12/03 07:12:46;;;;;;;348.58;153.93;;;;;;;1.01;81.98;95241.34;5017189;28;20217;-88
2020/12/03 07:15:58;;;;;;;331.50;154.85;;;;;;;1.13;81.42;95240.81;5014056;28;20204;-88
2020/12/03 07:19:21;;;;;;;225.57;110.60;;;;;;;1.27;81.74;95242.84;5012968;28;20277;-83
2020/12/03 07:22:07;;;;;;;156.45;77.55;;;;;;;1.41;81.31;95239.63;5074254;28;20206;-88
2020/12/03 07:24:36;;;;;;;166.45;80.32;;;;;;;1.52;81.28;95234.84;5019955;28;20210;-89
2020/12/03 07:27:48;;;;;;;192.80;85.22;;;;;;;1.61;80.81;95233.59;5015405;28;20263;-88
2020/12/03 07:30:33;;;;;;;154.30;78.55;;;;;;;1.79;79.85;95243.13;5013693;28;20266;-85
2020/12/03 07:33:04;;;;;;;133.50;67.53;;;;;;;1.92;80.00;95241.66;5028340;28;20707;-83
2020/12/03 07:35:40;;;;;;;144.10;74.20;;;;;;;2.02;80.22;95237.72;5033413;28;20480;-86
2020/12/03 07:38:19;;;;;;;142.98;70.22;;;;;;;2.24;81.51;95232.41;5032992;28;20921;-86
2020/12/03 07:40:50;;;;;;;142.60;67.17;;;;;;;2.46;79.99;95238.25;5033584;28;20184;-86
2020/12/03 07:43:20;;;;;;;125.43;58.47;;;;;;;2.65;78.68;95239.97;5032994;28;20449;-86
2020/12/03 07:45:49;;;;;;;127.32;62.72;;;;;;;2.75;77.92;95236.00;5033636;28;20486;-87
2020/12/03 07:48:23;;;;;;;98.90;53.30;;;;;;;2.81;77.29;95233.13;5033627;28;20207;-88
2020/12/03 07:51:08;;;;;;;111.50;53.00;;;;;;;2.82;76.82;95232.19;5032277;28;20870;-85
2020/12/03 07:53:38;;;;;;;119.70;55.40;;;;;;;2.65;76.58;95232.22;5032159;28;20468;-82
2020/12/03 07:56:38;;;;;;;98.80;53.23;;;;;;;2.78;77.20;95230.69;5032332;28;20437;-85
2020/12/03 07:59:28;;;;;;;121.40;57.37;;;;;;;2.86;76.82;95235.47;5031688;28;20446;-83
2020/12/03 08:01:57;;;;;;;107.77;53.47;;;;;;;2.88;77.10;95231.06;5012064;28;20483;-83
2020/12/03 08:04:32;;;;;;;73.70;36.90;;;;;;;3.00;76.52;95240.84;5012493;28;20932;-85
2020/12/03 08:07:34;;;;;;;76.40;43.87;;;;;;;3.01;76.13;95245.09;5012272;28;20496;-82
2020/12/03 08:10:02;;;;;;;88.40;44.67;;;;;;;3.05;76.26;95244.88;5012773;28;20463;-83
2020/12/03 08:12:30;;;;;;;80.00;41.43;;;;;;;3.09;77.15;95243.78;5020145;28;20454;-85
2020/12/03 08:15:02;;;;;;;118.27;51.23;;;;;;;3.13;76.52;95241.88;5031736;28;20479;-86
2020/12/03 08:17:46;;;;;;;96.90;41.20;;;;;;;3.12;76.17;95229.84;5031980;27;20975;-83
2020/12/03 08:20:41;;;;;;;86.73;38.87;;;;;;;3.15;76.67;95237.47;5019322;28;20446;-83
2020/12/03 08:23:13;;;;;;;67.60;36.27;;;;;;;3.21;76.58;95236.34;5028557;28;20502;-89
2020/12/03 08:25:48;;;;;;;50.77;29.30;;;;;;;3.14;76.44;95234.94;5033096;28;20459;-90
2020/12/03 08:28:22;;;;;;;76.63;35.13;;;;;;;3.15;76.48;95244.41;5014156;28;20471;-90
2020/12/03 08:30:51;;;;;;;72.40;36.50;;;;;;;3.16;77.42;95240.88;5015808;28;20471;-91
2020/12/03 08:33:32;;;;;;;49.77;29.50;;;;;;;3.19;77.04;95233.81;5014225;28;20470;-90
2020/12/03 08:36:03;;;;;;;83.13;39.60;;;;;;;3.18;76.84;95234.75;5034674;28;20544;-88
2020/12/03 08:38:32;;;;;;;59.57;30.80;;;;;;;3.23;76.95;95235.34;5036452;28;20453;-89
2020/12/03 08:41:03;;;;;;;47.97;27.57;;;;;;;3.16;77.48;95225.34;5033798;28;20474;-89
2020/12/03 08:43:32;;;;;;;48.43;24.87;;;;;;;3.12;77.65;95235.03;5031696;28;20464;-88
2020/12/03 08:46:03;;;;;;;55.03;27.57;;;;;;;3.14;78.78;95234.94;5033155;27;20449;-89
2020/12/03 08:48:36;;;;;;;54.37;30.13;;;;;;;3.21;78.53;95242.38;5032305;28;20442;-91
2020/12/03 08:51:06;;;;;;;52.83;30.97;;;;;;;3.23;78.30;95237.09;5033089;28;20513;-89
2020/12/03 08:53:35;;;;;;;58.67;30.70;;;;;;;3.24;78.46;95236.19;5032296;28;20950;-90
2020/12/03 08:56:22;;;;;;;47.83;27.53;;;;;;;3.30;77.88;95235.88;5036723;27;20442;-93
2020/12/03 08:58:59;;;;;;;48.97;28.07;;;;;;;3.39;77.51;95235.38;5033878;28;20487;-91
2020/12/03 09:01:31;;;;;;;47.27;28.20;;;;;;;3.46;76.77;95225.53;5034305;28;20447;-91
2020/12/03 09:04:02;;;;;;;51.57;26.30;;;;;;;3.56;76.58;95213.78;5034294;28;20829;-91
2020/12/03 09:06:31;;;;;;;60.63;33.40;;;;;;;3.57;75.95;95218.88;5033058;27;20457;-85
2020/12/03 09:08:57;;;;;;;63.77;32.87;;;;;;;3.48;77.96;95229.75;5031280;28;20454;-85
2020/12/03 09:11:25;;;;;;;73.57;36.60;;;;;;;3.48;77.53;95228.91;5030714;28;20572;-84
2020/12/03 09:13:57;;;;;;;55.53;32.07;;;;;;;3.28;78.21;95222.13;5031096;28;20502;-87
2020/12/03 09:16:26;;;;;;;53.50;30.17;;;;;;;3.30;78.88;95222.91;5030939;28;20504;-85
2020/12/03 09:18:53;;;;;;;62.17;30.03;;;;;;;3.30;80.05;95220.31;5030758;27;20442;-85
2020/12/03 09:21:27;;;;;;;54.00;28.67;;;;;;;3.37;79.32;95232.03;5031594;28;20450;-88
2020/12/03 09:23:55;;;;;;;57.77;30.93;;;;;;;3.46;79.98;95226.34;5031364;27;20451;-85
2020/12/03 09:26:30;;;;;;;48.40;26.20;;;;;;;3.51;79.30;95227.00;5035277;27;20446;-87
2020/12/03 09:28:59;;;;;;;42.93;25.63;;;;;;;3.44;77.81;95225.59;5028136;27;20438;-85
2020/12/03 09:31:27;;;;;;;50.47;26.60;;;;;;;3.53;77.78;95227.75;5028588;27;20493;-84
2020/12/03 09:33:58;;;;;;;44.03;25.63;;;;;;;3.76;77.63;95223.94;5025684;27;20527;-86
2020/12/03 09:36:26;;;;;;;39.10;22.13;;;;;;;3.72;76.88;95218.06;5030404;28;20453;-86
2020/12/03 09:38:58;;;;;;;47.40;24.77;;;;;;;3.38;77.31;95216.38;5030842;28;20446;-87
2020/12/03 09:41:24;;;;;;;40.43;24.20;;;;;;;3.68;77.57;95207.94;5031000;28;20450;-84
2020/12/03 09:43:54;;;;;;;33.87;19.37;;;;;;;3.79;76.91;95202.19;5030854;28;20469;-87
2020/12/03 09:46:25;;;;;;;34.50;20.90;;;;;;;3.92;76.10;95208.38;5031033;28;20549;-86
2020/12/03 09:48:54;;;;;;;34.40;20.10;;;;;;;3.86;76.75;95208.72;5030783;28;20462;-85
2020/12/03 09:51:22;;;;;;;36.57;20.80;;;;;;;4.07;75.76;95196.34;5031506;28;20517;-88
2020/12/03 09:53:52;;;;;;;52.20;24.47;;;;;;;4.31;76.40;95206.19;5030167;28;20579;-87
2020/12/03 09:56:19;;;;;;;34.83;21.37;;;;;;;4.48;74.84;95201.84;5030344;28;20446;-87
2020/12/03 09:58:46;;;;;;;40.53;22.67;;;;;;;4.62;73.98;95196.69;5030727;28;20454;-86
2020/12/03 10:01:14;;;;;;;42.57;26.23;;;;;;;4.75;72.99;95194.25;5031072;28;20444;-84
2020/12/03 10:04:20;;;;;;;56.23;29.17;;;;;;;4.84;72.67;95186.75;5030945;28;20474;-88
2020/12/03 10:06:55;;;;;;;44.60;24.03;;;;;;;4.82;72.75;95191.19;5030072;28;20422;-86
2020/12/03 10:10:03;;;;;;;44.43;23.43;;;;;;;4.75;72.51;95189.88;5029096;28;20478;-84
2020/12/03 10:13:12;;;;;;;43.77;23.43;;;;;;;4.56;72.73;95173.66;5004937;28;20486;-87
2020/12/03 10:15:59;;;;;;;49.30;23.87;;;;;;;4.61;74.13;95169.03;5024203;28;20454;-88
2020/12/03 10:18:38;;;;;;;39.83;21.70;;;;;;;4.29;74.36;95169.09;5018086;28;20447;-86
2020/12/03 10:21:06;;;;;;;32.93;20.13;;;;;;;4.21;74.64;95163.50;5028016;28;20467;-84
2020/12/03 10:23:59;;;;;;;43.20;23.90;;;;;;;4.36;74.52;95164.41;5034825;27;20442;-91
2020/12/03 10:26:40;;;;;;;40.75;23.52;;;;;;;4.40;74.00;95167.66;5025975;28;20351;-91
2020/12/03 10:29:42;;;;;;;45.20;24.50;;;;;;;4.53;74.78;95155.66;5033220;28;20303;-89
2020/12/03 10:32:12;;;;;;;45.57;24.90;;;;;;;4.70;74.71;95149.50;5036166;28;20477;-92
2020/12/03 10:34:40;;;;;;;47.70;29.50;;;;;;;4.92;74.45;95150.75;5034846;27;20437;-94
2020/12/03 10:37:21;;;;;;;46.97;25.20;;;;;;;5.22;77.84;95145.50;5038659;27;20208;-93
2020/12/03 10:39:55;;;;;;;43.03;23.10;;;;;;;5.36;73.27;95136.03;5037842;27;20953;-93
2020/12/03 10:42:28;;;;;;;37.10;22.30;;;;;;;5.41;72.32;95140.03;5034370;27;20468;-93
2020/12/03 10:45:05;;;;;;;38.00;23.40;;;;;;;5.42;71.88;95123.47;5032364;27;20457;-93
2020/12/03 10:47:55;;;;;;;34.53;22.00;;;;;;;5.43;71.64;95130.34;5033163;28;20437;-91
2020/12/03 10:50:42;;;;;;;39.43;22.70;;;;;;;5.37;71.16;95117.72;5033666;28;20470;-86
2020/12/03 10:53:10;;;;;;;41.93;23.43;;;;;;;5.50;71.15;95123.88;5031880;28;20995;-84
2020/12/03 10:55:37;;;;;;;49.37;24.50;;;;;;;5.54;70.45;95127.94;5032755;28;20454;-85
2020/12/03 10:58:11;;;;;;;45.58;24.95;;;;;;;5.24;71.99;95114.19;5031799;28;20438;-84
2020/12/03 11:00:40;;;;;;;42.10;23.50;;;;;;;5.25;71.24;95111.50;5033649;28;20272;-87
2020/12/03 11:03:16;;;;;;;45.90;25.47;;;;;;;5.16;70.88;95117.25;5032736;28;20449;-86
2020/12/03 11:05:45;;;;;;;39.20;20.97;;;;;;;5.32;71.53;95105.94;5031710;28;21009;-87
2020/12/03 11:08:12;;;;;;;38.03;23.03;;;;;;;5.30;71.77;95106.03;5033106;28;20442;-85
2020/12/03 11:10:51;;;;;;;43.17;25.53;;;;;;;5.27;71.67;95101.84;5032322;28;20931;-91
2020/12/03 11:13:25;;;;;;;38.77;22.03;;;;;;;5.21;73.06;95088.38;5037584;27;20486;-88
2020/12/03 11:15:57;;;;;;;33.60;21.60;;;;;;;5.40;72.66;95101.06;5033692;28;20478;-91
2020/12/03 11:18:26;;;;;;;36.17;18.93;;;;;;;5.35;71.74;95100.53;5033756;28;20943;-88
2020/12/03 11:20:58;;;;;;;34.70;18.63;;;;;;;5.43;72.50;95099.13;5036161;28;20450;-90
2020/12/03 11:23:32;;;;;;;32.87;18.97;;;;;;;5.48;71.16;95094.47;5039261;28;20460;-89
2020/12/03 11:26:09;;;;;;;35.20;20.73;;;;;;;5.33;71.23;95087.63;5047552;28;20947;-89
2020/12/03 11:28:39;;;;;;;41.57;22.43;;;;;;;5.36;71.77;95078.78;5047946;28;20449;-89
2020/12/03 11:31:07;;;;;;;38.07;21.60;;;;;;;5.31;71.60;95093.84;5047430;28;20511;-88
2020/12/03 11:33:37;;;;;;;39.40;22.80;;;;;;;5.28;72.52;95080.09;5048955;28;20525;-91
2020/12/03 11:36:32;;;;;;;43.23;20.00;;;;;;;5.36;71.82;95065.78;5255215;22;20484;-86
2020/12/03 11:39:00;;;;;;;36.00;19.97;;;;;;;5.51;72.03;95068.28;5074133;28;20945;-82
2020/12/03 11:41:34;;;;;;;49.70;23.60;;;;;;;5.48;72.41;95063.25;5081436;28;20440;-83
2020/12/03 11:44:47;;;;;;;45.93;21.37;;;;;;;5.26;72.38;95060.31;5078436;28;20470;-82
2020/12/03 11:50:15;;;;;;;38.77;18.40;;;;;;;5.18;71.60;95067.72;5120551;28;20873;-89
2020/12/03 11:52:41;;;;;;;42.00;20.97;;;;;;;5.43;71.42;95060.09;5120133;28;20624;-90